This is the latest recevied weather packets stored in our database for station/object N9XRG. If no packets are shown the sender has not sent any weather packets the latest 10 day(s).
| Time | Temp. | Humidity | Pressure | Rain* | Wind** | Luminosity | Snow |
|---|---|---|---|---|---|---|---|
| 1777576967 | 13.33° C | 44% | 1015.6 hPa | 0 mm | - | 992 W/m² | - |
| 1777576664 | 13.33° C | 47% | 1015.3 hPa | 0 mm | - | 213 W/m² | - |
| 1777576363 | 13.89° C | 45% | 1015.4 hPa | 0 mm | - | 195 W/m² | - |
| 1777576060 | 13.89° C | 45% | 1015.3 hPa | 0 mm | - | 303 W/m² | - |
| 1777575756 | 14.44° C | 44% | 1015.8 hPa | 0 mm | - | 327 W/m² | - |
| 1777575452 | 15° C | 41% | 1015.7 hPa | 0 mm | - | 1049 W/m² | - |
| 1777575148 | 15° C | 43% | 1015.7 hPa | 0 mm | - | 1009 W/m² | - |
| 1777574844 | 15° C | 48% | 1015.6 hPa | 0 mm | - | 846 W/m² | - |
| 1777574542 | 15° C | 47% | 1015.6 hPa | 0 mm | - | 1025 W/m² | - |
| 1777574238 | 15° C | 45% | 1015.7 hPa | 0 mm | - | 993 W/m² | - |
| 1777573933 | 14.44° C | 44% | 1015.5 hPa | 0 mm | - | 1062 W/m² | - |
| 1777573628 | 13.89° C | 45% | 1015.7 hPa | 0 mm | - | 1005 W/m² | - |
| 1777573325 | 13.33° C | 49% | 1015.8 hPa | 0 mm | - | 240 W/m² | - |
| 1777573021 | 14.44° C | 45% | 1015.8 hPa | 0 mm | - | 220 W/m² | - |
| 1777572716 | 13.89° C | 47% | 1015.6 hPa | 0 mm | - | 381 W/m² | - |
| 1777572412 | 13.89° C | 45% | 1015.9 hPa | 0 mm | - | 189 W/m² | - |
| 1777572109 | 12.78° C | 48% | 1015.8 hPa | 0 mm | - | 224 W/m² | - |
| 1777571809 | 13.89° C | 46% | 1016.1 hPa | 0 mm | - | 1131 W/m² | - |
| 1777571505 | 13.33° C | 49% | 1015.8 hPa | 0 mm | - | 257 W/m² | - |
| 1777571202 | 13.89° C | 46% | 1016.1 hPa | 0 mm | - | 236 W/m² | - |
| 1777570898 | 13.33° C | 47% | 1016.1 hPa | 0 mm | - | 1176 W/m² | - |
| 1777570594 | 13.33° C | 49% | 1016.3 hPa | 0 mm | - | 1114 W/m² | - |
| 1777570291 | 14.44° C | 47% | 1016.2 hPa | 0 mm | - | 1112 W/m² | - |
| 1777569986 | 13.89° C | 48% | 1016.6 hPa | 0 mm | - | 1010 W/m² | - |
| 1777569682 | 13.33° C | 47% | 1016.3 hPa | 0 mm | - | 1129 W/m² | - |
* Rain latest hour (hover to see other rain measurements)
** Current wind speed in m/s (hover to see current wind gust speed)